Time;durP1;ratioP1;P1;durP2;ratioP2;P2;SDS_P1;SDS_P2;PMS_P1;PMS_P2;Temp;Humidity;BMP_temperature;BMP_pressure;BME280_temperature;BME280_humidity;BME280_pressure;Samples;Min_cycle;Max_cycle;Signal;HPM_P1;HPM_P2
2021/03/20 00:00:43;;;;;;;;;;;;;;;0.50;81.95;100076.66;1751257;81;20226;-74
2021/03/20 00:03:10;;;;;;;;;;;;;;;0.48;81.96;100071.53;1751948;81;20751;-75
2021/03/20 00:05:38;;;;;;;;;;;;;;;0.47;81.97;100073.72;1746580;81;20229;-75
2021/03/20 00:08:07;;;;;;;;;;;;;;;0.46;81.99;100071.19;1745825;81;22999;-75
2021/03/20 00:10:34;;;;;;;;;;;;;;;0.46;82.00;100066.84;1750694;81;20252;-74
2021/03/20 00:13:02;;;;;;;;;;;;;;;0.47;82.03;100066.38;1746891;81;20226;-74
2021/03/20 00:15:29;;;;;;;;;;;;;;;0.47;82.05;100066.38;1760286;81;20490;-74
2021/03/20 00:17:56;;;;;;;;;;;;;;;0.46;82.05;100064.23;1747765;81;20410;-74
2021/03/20 00:20:27;;;;;;;;;;;;;;;0.46;82.06;100064.23;1763048;80;21833;-74
2021/03/20 00:22:54;;;;;;;;;;;;;;;0.46;82.07;100060.80;1763236;80;20482;-75
2021/03/20 00:25:22;;;;;;;;;;;;;;;0.47;82.10;100061.19;1762954;80;20408;-74
2021/03/20 00:27:49;;;;;;;;;;;;;;;0.46;82.11;100062.09;1762652;81;20247;-74
2021/03/20 00:30:16;;;;;;;;;;;;;;;0.45;82.13;100062.55;1744913;81;20235;-75
2021/03/20 00:32:44;;;;;;;;;;;;;;;0.46;82.14;100060.34;1764552;81;22115;-74
2021/03/20 00:35:13;;;;;;;;;;;;;;;0.47;82.12;100062.02;1751731;81;21258;-73
2021/03/20 00:37:40;;;;;;;;;;;;;;;0.47;82.13;100058.13;1755885;81;20243;-74
2021/03/20 00:40:10;;;;;;;;;;;;;;;0.49;82.20;100058.09;1761708;81;20468;-73
2021/03/20 00:42:37;;;;;;;;;;;;;;;0.49;82.19;100060.23;1761559;81;20218;-72
2021/03/20 00:45:06;;;;;;;;;;;;;;;0.49;82.18;100060.23;1745853;81;22500;-73
2021/03/20 00:47:33;;;;;;;;;;;;;;;0.47;82.17;100054.69;1760023;81;20393;-73
2021/03/20 00:50:00;;;;;;;;;;;;;;;0.46;82.18;100059.50;1751451;81;20273;-73
2021/03/20 00:52:28;;;;;;;;;;;;;;;0.44;82.19;100056.12;1716591;81;20314;-74
2021/03/20 00:54:55;;;;;;;;;;;;;;;0.43;82.21;100051.84;1753321;81;20549;-74
2021/03/20 00:57:22;;;;;;;;;;;;;;;0.42;82.21;100049.70;1754201;81;21962;-74
2021/03/20 00:59:49;;;;;;;;;;;;;;;0.42;82.24;100054.90;1754623;81;20387;-73
2021/03/20 01:02:16;;;;;;;;;;;;;;;0.42;82.24;100052.30;1756697;81;20576;-75
2021/03/20 01:04:44;;;;;;;;;;;;;;;0.43;82.27;100051.39;1751694;81;21158;-75
2021/03/20 01:07:11;;;;;;;;;;;;;;;0.42;82.29;100051.00;1751497;81;20327;-75
2021/03/20 01:09:38;;;;;;;;;;;;;;;0.42;82.31;100049.70;1754149;81;21905;-74
2021/03/20 01:12:06;;;;;;;;;;;;;;;0.44;82.33;100049.63;1748521;81;20328;-74
2021/03/20 01:14:33;;;;;;;;;;;;;;;0.45;82.30;100051.31;1747449;81;20221;-74
2021/03/20 01:17:01;;;;;;;;;;;;;;;0.45;82.33;100053.45;1752303;81;20736;-74
2021/03/20 01:19:29;;;;;;;;;;;;;;;0.45;82.32;100053.45;1751748;81;20260;-74
2021/03/20 01:21:56;;;;;;;;;;;;;;;0.44;82.32;100047.88;1751297;81;21892;-73
2021/03/20 01:24:24;;;;;;;;;;;;;;;0.44;82.30;100056.97;1752220;81;20371;-73
2021/03/20 01:26:51;;;;;;;;;;;;;;;0.43;82.33;100045.34;1759730;80;20312;-73
2021/03/20 01:29:19;;;;;;;;;;;;;;;0.43;82.33;100050.55;1757788;80;20468;-74
2021/03/20 01:31:46;;;;;;;;;;;;;;;0.43;82.34;100047.48;1754316;80;20242;-74
2021/03/20 01:34:13;;;;;;;;;;;;;;;0.43;82.35;100045.34;1745438;81;23058;-74
2021/03/20 01:36:41;;;;;;;;;;;;;;;0.45;82.38;100050.02;1752444;81;20740;-74
2021/03/20 01:39:08;;;;;;;;;;;;;;;0.45;82.38;100038.33;1743540;81;20218;-74
2021/03/20 01:41:35;;;;;;;;;;;;;;;0.46;82.42;100041.30;1747865;81;21442;-75
2021/03/20 01:44:03;;;;;;;;;;;;;;;0.44;82.39;100042.67;1740288;81;20222;-75
2021/03/20 01:46:46;;;;;;;;;;;;;;;0.42;82.37;100040.61;1745126;81;21895;-75
2021/03/20 01:49:46;;;;;;;;;;;;;;;0.41;82.37;100045.42;1746577;81;20301;-73
2021/03/20 01:52:25;;;;;;;;;;;;;;;0.41;82.40;100048.02;1752581;81;20297;-73
2021/03/20 01:54:57;;;;;;;;;;;;;;;0.41;82.45;100043.28;1749046;81;20235;-73
2021/03/20 01:57:30;;;;;;;;;;;;;;;0.43;82.44;100051.84;1746202;81;20294;-73
2021/03/20 01:59:58;;;;;;;;;;;;;;;0.43;82.46;100050.55;1748351;81;22299;-75
2021/03/20 02:02:25;;;;;;;;;;;;;;;0.44;82.46;100045.73;1754515;81;20378;-74
2021/03/20 02:04:52;;;;;;;;;;;;;;;0.43;82.46;100053.98;1758498;81;20234;-73
2021/03/20 02:07:19;;;;;;;;;;;;;;;0.43;82.45;100050.55;1750741;81;21428;-73
2021/03/20 02:09:47;;;;;;;;;;;;;;;0.42;82.47;100048.41;1759038;81;20268;-74
2021/03/20 02:12:20;;;;;;;;;;;;;;;0.42;82.48;100049.70;1747664;81;22060;-74
2021/03/20 02:14:55;;;;;;;;;;;;;;;0.41;82.46;100051.91;1752684;81;20230;-73
2021/03/20 02:17:37;;;;;;;;;;;;;;;0.39;82.47;100045.11;1753596;81;20212;-74
2021/03/20 02:20:09;;;;;;;;;;;;;;;0.41;82.49;100045.88;1746624;81;21276;-73
2021/03/20 02:23:06;;;;;;;;;;;;;;;0.42;82.50;100049.70;1748082;81;20226;-73
2021/03/20 02:25:46;;;;;;;;;;;;;;;0.43;82.51;100056.58;1753913;81;22069;-71
2021/03/20 02:28:46;;;;;;;;;;;;;;;0.43;82.54;100055.28;1746725;81;20497;-71
2021/03/20 02:31:41;;;;;;;;;;;;;;;0.43;82.52;100056.58;1742592;81;20226;-73
2021/03/20 02:34:25;;;;;;;;;;;;;;;0.44;82.55;100060.02;1745558;81;20307;-73
2021/03/20 02:37:08;;;;;;;;;;;;;;;0.43;82.55;100058.34;1743540;81;20226;-73
2021/03/20 02:39:48;;;;;;;;;;;;;;;0.43;82.56;100061.78;1750824;81;23043;-73
2021/03/20 02:42:42;;;;;;;;;;;;;;;0.42;82.56;100055.35;1755615;81;20232;-73
2021/03/20 02:45:29;;;;;;;;;;;;;;;0.42;82.55;100062.69;1754781;81;20295;-73
2021/03/20 02:48:11;;;;;;;;;;;;;;;0.42;82.58;100062.69;1745948;81;21069;-72
2021/03/20 02:50:57;;;;;;;;;;;;;;;0.42;82.56;100065.75;1749111;81;20239;-72
2021/03/20 02:53:28;;;;;;;;;;;;;;;0.41;82.57;100063.61;1748655;81;22527;-72
2021/03/20 02:55:57;;;;;;;;;;;;;;;0.42;82.58;100063.15;1750124;81;20230;-71
2021/03/20 02:58:30;;;;;;;;;;;;;;;0.41;82.62;100063.61;1745253;81;20424;-71
2021/03/20 03:00:59;;;;;;;;;;;;;;;0.41;82.65;100062.77;1755962;81;20746;-72
2021/03/20 03:03:30;;;;;;;;;;;;;;;0.42;82.67;100061.39;1749238;81;20281;-71
2021/03/20 03:06:07;;;;;;;;;;;;;;;0.42;82.65;100059.25;1743522;81;22061;-72
2021/03/20 03:08:41;;;;;;;;;;;;;;;0.43;82.68;100063.53;1745971;81;21659;-72
2021/03/20 03:11:15;;;;;;;;;;;;;;;0.43;82.67;100062.23;1749369;81;20541;-72
2021/03/20 03:13:49;;;;;;;;;;;;;;;0.42;82.66;100062.69;1748397;81;20462;-72
2021/03/20 03:16:27;;;;;;;;;;;;;;;0.46;82.69;100063.39;1884104;76;20732;-74
2021/03/20 03:19:00;;;;;;;;;;;;;;;0.41;82.68;100066.20;1845466;77;20251;-71
2021/03/20 03:21:29;;;;;;;;;;;;;;;0.42;82.71;100064.45;1839581;77;22986;-72
2021/03/20 03:23:56;;;;;;;;;;;;;;;0.41;82.68;100064.91;1858457;77;20438;-71
2021/03/20 03:26:29;;;;;;;;;;;;;;;0.41;82.70;100069.26;1844214;77;20376;-72
2021/03/20 03:29:00;;;;;;;;;;;;;;;0.40;82.70;100065.81;1849045;77;20287;-71
2021/03/20 03:31:34;;;;;;;;;;;;;;;0.42;82.72;100064.45;1844245;77;20209;-72
2021/03/20 03:34:06;;;;;;;;;;;;;;;0.44;82.74;100069.12;1848062;77;21826;-71
2021/03/20 03:36:37;;;;;;;;;;;;;;;0.46;82.77;100072.48;1851080;77;20362;-72
2021/03/20 03:39:17;;;;;;;;;;;;;;;0.48;82.74;100068.06;1846283;77;20496;-72
2021/03/20 03:41:46;;;;;;;;;;;;;;;0.49;82.73;100075.82;1830192;77;20260;-74
2021/03/20 03:44:13;;;;;;;;;;;;;;;0.49;82.73;100068.02;1806582;77;20492;-73
2021/03/20 03:46:43;;;;;;;;;;;;;;;0.49;82.72;100074.98;1815065;78;22508;-74
2021/03/20 03:49:12;;;;;;;;;;;;;;;0.50;82.70;100072.77;1821173;78;20365;-73
2021/03/20 03:51:39;;;;;;;;;;;;;;;0.50;82.68;100070.16;1802630;78;20506;-73
2021/03/20 03:54:06;;;;;;;;;;;;;;;0.49;82.66;100072.38;1817893;78;21652;-73
2021/03/20 03:56:59;;;;;;;;;;;;;;;0.48;82.67;100078.45;1791631;78;20216;-73
2021/03/20 03:59:42;;;;;;;;;;;;;;;0.46;82.67;100075.93;1824959;78;21959;-73
2021/03/20 04:02:29;;;;;;;;;;;;;;;0.45;82.68;100075.55;1818059;78;20272;-72
2021/03/20 04:05:04;;;;;;;;;;;;;;;0.45;82.68;100074.70;1814559;78;20522;-72
2021/03/20 04:07:44;;;;;;;;;;;;;;;0.45;82.68;100078.59;1820942;78;20315;-73
2021/03/20 04:10:31;;;;;;;;;;;;;;;0.45;82.67;100079.44;1780420;78;20204;-72
2021/03/20 04:13:09;;;;;;;;;;;;;;;0.45;82.67;100079.89;1816418;78;22960;-72
2021/03/20 04:15:58;;;;;;;;;;;;;;;0.43;82.67;100078.67;1817268;78;20258;-72
2021/03/20 04:18:47;;;;;;;;;;;;;;;0.43;82.66;100075.23;1815853;78;20251;-72
2021/03/20 04:21:50;;;;;;;;;;;;;;;0.43;82.65;100079.97;1814852;78;20246;-71
2021/03/20 04:24:23;;;;;;;;;;;;;;;0.43;82.68;100085.16;1813288;78;20617;-74
2021/03/20 04:27:00;;;;;;;;;;;;;;;0.42;82.66;100088.67;1789415;78;22155;-72
2021/03/20 04:29:40;;;;;;;;;;;;;;;0.41;82.66;100085.69;1814236;78;20371;-73
2021/03/20 04:32:16;;;;;;;;;;;;;;;0.42;82.67;100090.42;1809548;78;20240;-72
2021/03/20 04:34:47;;;;;;;;;;;;;;;0.43;82.68;100092.11;1810015;78;20249;-72
2021/03/20 04:37:20;;;;;;;;;;;;;;;0.44;82.71;100086.84;1808858;78;20217;-72
2021/03/20 04:39:49;;;;;;;;;;;;;;;0.45;82.73;100094.19;1812497;78;22046;-73
2021/03/20 04:42:23;;;;;;;;;;;;;;;0.48;82.74;100091.45;1814017;78;20381;-72
2021/03/20 04:44:50;;;;;;;;;;;;;;;0.49;82.67;100094.47;1818638;78;20235;-72
2021/03/20 04:47:19;;;;;;;;;;;;;;;0.48;82.67;100096.22;1816618;78;20220;-71
2021/03/20 04:49:59;;;;;;;;;;;;;;;0.48;82.67;100096.22;1824030;78;20208;-72
2021/03/20 04:52:36;;;;;;;;;;;;;;;0.49;82.71;100101.80;1813397;78;22961;-72
2021/03/20 04:55:06;;;;;;;;;;;;;;;0.52;82.73;100100.82;1815299;78;20375;-72
2021/03/20 04:57:43;;;;;;;;;;;;;;;0.53;82.71;100109.84;1786195;78;20207;-73
2021/03/20 05:00:14;;;;;;;;;;;;;;;0.54;82.70;100110.23;1807562;78;20204;-73
2021/03/20 05:02:47;;;;;;;;;;;;;;;0.53;82.68;100113.74;1803355;78;20215;-72
2021/03/20 05:05:24;;;;;;;;;;;;;;;0.53;82.68;100115.50;1797851;78;22802;-72
2021/03/20 05:07:52;;;;;;;;;;;;;;;0.55;82.72;100107.18;1764603;78;20401;-73
2021/03/20 05:10:29;;;;;;;;;;;;;;;0.57;82.72;100111.84;1807017;78;20216;-72
2021/03/20 05:12:57;;;;;;;;;;;;;;;0.57;82.68;100111.39;1821535;78;20956;-71
2021/03/20 05:15:29;;;;;;;;;;;;;;;0.58;82.68;100113.56;1773710;80;20505;-72
2021/03/20 05:17:57;;;;;;;;;;;;;;;0.59;82.65;100113.11;1796698;78;22116;-72
2021/03/20 05:20:24;;;;;;;;;;;;;;;0.59;82.64;100117.01;1788548;78;20299;-72
2021/03/20 05:22:52;;;;;;;;;;;;;;;0.59;82.62;100117.01;1794982;78;20460;-73
2021/03/20 05:25:21;;;;;;;;;;;;;;;0.59;82.61;100113.95;1795438;78;20680;-73
2021/03/20 05:27:48;;;;;;;;;;;;;;;0.60;82.59;100119.99;1781166;78;20462;-72
2021/03/20 05:30:17;;;;;;;;;;;;;;;0.60;82.58;100120.84;1799096;78;23347;-72
2021/03/20 05:32:46;;;;;;;;;;;;;;;0.62;82.60;100118.16;1791502;78;20467;-72
2021/03/20 05:35:23;;;;;;;;;;;;;;;0.64;82.62;100117.64;1796604;78;20229;-73
2021/03/20 05:37:51;;;;;;;;;;;;;;;0.67;82.66;100120.94;1794272;78;20317;-72
2021/03/20 05:40:24;;;;;;;;;;;;;;;0.68;82.59;100123.95;1797682;78;20226;-72
2021/03/20 05:43:07;;;;;;;;;;;;;;;0.68;82.58;100127.86;1759387;80;21944;-72
2021/03/20 05:45:44;;;;;;;;;;;;;;;0.68;82.57;100124.41;1746960;80;20510;-72
2021/03/20 05:48:20;;;;;;;;;;;;;;;0.71;82.52;100135.97;1731759;82;20255;-72
2021/03/20 05:50:57;;;;;;;;;;;;;;;0.71;82.51;100138.56;1730463;81;20235;-71
2021/03/20 05:54:03;;;;;;;;;;;;;;;0.74;82.53;100138.42;1740742;81;20213;-71
2021/03/20 05:57:04;;;;;;;;;;;;;;;0.75;82.53;100140.95;1735096;81;22973;-72
2021/03/20 05:59:50;;;;;;;;;;;;;;;0.77;82.57;100137.86;1740948;81;20246;-71
2021/03/20 06:02:39;;;;;;;;;;;;;;;0.80;82.52;100142.08;1658773;81;20459;-72
2021/03/20 06:05:23;;;;;;;;;;;;;;;0.81;82.52;100140.70;1722993;82;20758;-72
2021/03/20 06:07:53;;;;;;;;;;;;;;;0.85;82.54;100147.45;1737172;81;20156;-72
2021/03/20 06:10:43;;;;;;;;;;;;;;;0.90;82.58;100152.47;1738857;82;21756;-72
2021/03/20 06:13:34;;;;;;;;;;;;;;;0.94;82.54;100151.41;1732423;81;20234;-70
2021/03/20 06:16:07;;;;;;;;;;;;;;;0.97;82.52;100153.90;1744858;81;20220;-71
2021/03/20 06:19:08;;;;;;;;;;;;;;;0.97;82.46;100155.66;1706503;82;20573;-71
2021/03/20 06:21:59;;;;;;;;;;;;;;;0.98;82.44;100155.59;1745148;82;20246;-72
2021/03/20 06:24:44;;;;;;;;;;;;;;;0.98;82.42;100160.79;1749711;81;22467;-71
2021/03/20 06:27:12;;;;;;;;;;;;;;;1.02;82.41;100167.53;1747760;81;20827;-72
2021/03/20 06:29:43;;;;;;;;;;;;;;;1.07;82.47;100162.99;1755042;81;20580;-72
2021/03/20 06:32:23;;;;;;;;;;;;;;;1.13;82.48;100170.50;1757538;81;20244;-72
2021/03/20 06:35:07;;;;;;;;;;;;;;;1.19;82.47;100163.36;1747674;81;20539;-71
2021/03/20 06:37:37;;;;;;;;;;;;;;;1.24;82.49;100163.98;1751485;81;22982;-73
2021/03/20 06:40:08;;;;;;;;;;;;;;;1.31;82.49;100175.81;1749832;81;20643;-71
2021/03/20 06:42:37;;;;;;;;;;;;;;;1.36;82.43;100166.91;1748603;81;20236;-72
2021/03/20 06:45:08;;;;;;;;;;;;;;;1.40;82.41;100171.50;1744468;81;20292;-73
2021/03/20 06:47:36;;;;;;;;;;;;;;;1.43;82.38;100170.05;1744566;81;20241;-72
2021/03/20 06:50:10;;;;;;;;;;;;;;;1.45;82.31;100169.55;1729298;81;22076;-74
2021/03/20 06:52:48;;;;;;;;;;;;;;;1.51;82.28;100167.95;1825056;76;20970;-74
2021/03/20 06:55:33;;;;;;;;;;;;;;;1.50;82.24;100174.08;1796534;77;20224;-74
2021/03/20 06:58:22;;;;;;;;;;;;;;;1.55;82.21;100173.88;1798757;79;22069;-74
2021/03/20 07:00:50;;;;;;;;;;;;;;;1.60;82.19;100177.11;1789287;79;20338;-72
2021/03/20 07:03:39;;;;;;;;;;;;;;;1.65;82.16;100173.85;1803747;79;20476;-73
2021/03/20 07:06:38;;;;;;;;;;;;;;;1.67;82.14;100178.52;1801038;78;20368;-73
2021/03/20 07:09:07;;;;;;;;;;;;;;;1.69;82.07;100176.23;1770633;79;20240;-74
2021/03/20 07:11:36;;;;;;;;;;;;;;;1.71;81.98;100181.36;1799978;79;22999;-73
2021/03/20 07:14:10;;;;;;;;;;;;;;;1.71;81.93;100180.05;1792359;79;21164;-73
2021/03/20 07:16:52;;;;;;;;;;;;;;;1.72;81.85;100184.34;1790472;79;20207;-73
2021/03/20 07:19:20;;;;;;;;;;;;;;;1.72;81.80;100186.49;1801108;79;20306;-73
2021/03/20 07:22:00;;;;;;;;;;;;;;;1.71;81.68;100184.80;1794283;79;20824;-73
2021/03/20 07:24:41;;;;;;;;;;;;;;;1.72;81.63;100190.40;1799853;79;22500;-73
2021/03/20 07:27:15;;;;;;;;;;;;;;;1.74;81.60;100190.35;1792871;79;20360;-73
2021/03/20 07:29:48;;;;;;;;;;;;;;;1.75;81.55;100193.80;1795779;79;20278;-73
2021/03/20 07:32:31;;;;;;;;;;;;;;;1.74;81.48;100196.86;1804914;79;22020;-74
2021/03/20 07:35:18;;;;;;;;;;;;;;;1.72;81.45;100194.30;1788963;79;20241;-74
2021/03/20 07:37:45;;;;;;;;;;;;;;;1.69;81.37;100198.81;1788067;79;22063;-72
2021/03/20 07:40:28;;;;;;;;;;;;;;;1.68;81.38;100199.27;1795851;79;20772;-72
2021/03/20 07:43:21;;;;;;;;;;;;;;;1.70;81.34;100198.74;1801267;78;20275;-71
2021/03/20 07:45:52;;;;;;;;;;;;;;;1.72;81.36;100207.78;1797305;79;21391;-72
2021/03/20 07:48:27;;;;;;;;;;;;;;;1.75;81.34;100205.06;1758472;79;20235;-72
2021/03/20 07:51:01;;;;;;;;;;;;;;;1.76;81.27;100215.02;1790858;78;22740;-72
2021/03/20 07:53:29;;;;;;;;;;;;;;;1.75;81.21;100212.87;1817602;77;20814;-70
2021/03/20 07:56:15;;;;;;;;;;;;;;;1.75;81.14;100213.33;1820303;77;20218;-72
2021/03/20 07:58:47;;;;;;;;;;;;;;;1.76;81.13;100216.31;1813625;78;20680;-72
2021/03/20 08:01:24;;;;;;;;;;;;;;;1.78;81.14;100220.98;1817998;78;20484;-72
2021/03/20 08:04:00;;;;;;;;;;;;;;;1.76;81.07;100217.62;1810607;78;22058;-72
2021/03/20 08:06:34;;;;;;;;;;;;;;;1.75;81.08;100219.84;1814224;77;20261;-72
2021/03/20 08:09:22;;;;;;;;;;;;;;;1.75;81.08;100227.65;1805089;78;20208;-74
2021/03/20 08:11:59;;;;;;;;;;;;;;;1.72;81.03;100229.45;1807749;78;20225;-72
2021/03/20 08:14:35;;;;;;;;;;;;;;;1.72;81.02;100229.91;1810058;76;20214;-73
2021/03/20 08:17:04;;;;;;;;;;;;;;;1.71;80.95;100229.53;1808559;78;22892;-74
2021/03/20 08:19:32;;;;;;;;;;;;;;;1.66;80.91;100235.41;1798560;78;20784;-74
2021/03/20 08:22:07;;;;;;;;;;;;;;;1.64;80.92;100234.61;1821574;76;20523;-73
2021/03/20 08:24:38;;;;;;;;;;;;;;;1.64;80.88;100238.09;1815021;78;20222;-72
2021/03/20 08:27:18;;;;;;;;;;;;;;;1.61;80.89;100236.91;1811409;78;20229;-73
2021/03/20 08:29:57;;;;;;;;;;;;;;;1.56;80.95;100240.64;1817128;78;22688;-72
2021/03/20 08:32:47;;;;;;;;;;;;;;;1.55;80.92;100238.95;1826388;78;20281;-73
2021/03/20 08:35:22;;;;;;;;;;;;;;;1.51;80.89;100239.98;1825781;78;20290;-72
2021/03/20 08:38:17;;;;;;;;;;;;;;;1.41;80.81;100243.45;1828086;78;20297;-71
2021/03/20 08:40:57;;;;;;;;;;;;;;;1.37;80.87;100249.72;1813789;78;20265;-72
2021/03/20 08:43:58;;;;;;;;;;;;;;;1.33;80.94;100249.44;1806801;78;20444;-72
2021/03/20 08:46:48;;;;;;;;;;;;;;;1.40;81.00;100246.97;1887730;76;20281;-73
2021/03/20 08:49:35;;;;;;;;;;;;;;;1.40;81.00;100254.78;1839638;76;20363;-73
2021/03/20 08:52:08;;;;;;;;;;;;;;;1.40;81.06;100253.02;1838001;76;22043;-73
2021/03/20 08:54:58;;;;;;;;;;;;;;;1.43;81.12;100254.17;1836746;76;21185;-71
2021/03/20 08:57:51;;;;;;;;;;;;;;;1.42;81.12;100259.45;1841873;76;20252;-68
2021/03/20 09:00:31;;;;;;;;;;;;;;;1.41;81.19;100257.31;1851093;76;20209;-72
2021/03/20 09:03:00;;;;;;;;;;;;;;;1.42;81.20;100261.59;1809882;79;20498;-70
2021/03/20 09:05:32;;;;;;;;;;;;;;;1.44;81.14;100260.22;1816925;77;22819;-71
2021/03/20 09:08:05;;;;;;;;;;;;;;;1.48;81.19;100258.35;1843349;76;21484;-70
2021/03/20 09:10:39;;;;;;;;;;;;;;;1.48;81.18;100264.86;1832593;76;20244;-70
2021/03/20 09:13:32;;;;;;;;;;;;;;;1.53;81.16;100260.28;1879001;76;20231;-70
2021/03/20 09:16:03;;;;;;;;;;;;;;;1.47;81.13;100269.68;1847641;77;20225;-71
2021/03/20 09:18:32;;;;;;;;;;;;;;;1.50;81.18;100273.44;1839312;77;22949;-71
2021/03/20 09:21:03;;;;;;;;;;;;;;;1.51;81.20;100278.58;1826420;77;20450;-70
2021/03/20 09:23:33;;;;;;;;;;;;;;;1.48;81.14;100274.81;1835996;76;20209;-71
2021/03/20 09:26:03;;;;;;;;;;;;;;;1.46;81.13;100271.89;1757871;79;20829;-72
2021/03/20 09:28:55;;;;;;;;;;;;;;;1.48;81.20;100276.57;1763041;80;20529;-70
2021/03/20 09:31:35;;;;;;;;;;;;;;;1.47;81.17;100277.03;1773730;78;22021;-72
2021/03/20 09:34:13;;;;;;;;;;;;;;;1.46;81.15;100275.34;1786449;79;20363;-70
2021/03/20 09:36:43;;;;;;;;;;;;;;;1.43;81.13;100280.66;1779373;79;20433;-73
2021/03/20 09:39:12;;;;;;;;;;;;;;;1.38;81.14;100279.57;1758123;81;20318;-74
2021/03/20 09:41:39;;;;;;;;;;;;;;;1.32;81.09;100276.38;1749923;80;20209;-71
2021/03/20 09:44:09;;;;;;;;;;;;;;;1.27;81.13;100279.65;1754785;80;22198;-72
2021/03/20 09:46:51;;;;;;;;;;;;;;;1.25;81.19;100282.74;1777970;80;21264;-71
2021/03/20 09:49:30;;;;;;;;;;;;;;;1.26;81.27;100284.47;1776404;80;20224;-71
2021/03/20 09:51:58;;;;;;;;;;;;;;;1.25;81.31;100286.64;1794033;80;20249;-71
2021/03/20 09:54:43;;;;;;;;;;;;;;;1.27;81.30;100292.66;1801065;79;20239;-71
2021/03/20 09:59:48;;;;;;;;;;;;;;;1.22;81.16;100296.73;1764619;81;20215;-71
2021/03/20 10:02:23;;;;;;;;;;;;;;;1.11;81.09;100301.09;1778841;80;20272;-71
2021/03/20 10:05:05;;;;;;;;;;;;;;;1.11;81.22;100306.30;1788331;80;20234;-72
2021/03/20 10:07:37;;;;;;;;;;;;;;;1.10;81.31;100296.80;1787744;80;20240;-71
2021/03/20 10:10:14;;;;;;;;;;;;;;;1.12;81.33;100298.88;1771841;80;22052;-72
2021/03/20 10:12:48;;;;;;;;;;;;;;;1.17;81.40;100304.36;1770857;80;20805;-71
2021/03/20 10:15:25;;;;;;;;;;;;;;;1.13;81.30;100314.03;1774671;80;20410;-70
2021/03/20 10:18:08;;;;;;;;;;;;;;;1.15;81.40;100307.84;1771939;80;20527;-71
2021/03/20 10:20:44;;;;;;;;;;;;;;;1.23;81.54;100314.03;1762899;80;20257;-71
2021/03/20 10:23:30;;;;;;;;;;;;;;;1.27;81.47;100314.31;1749068;80;23089;-70
2021/03/20 10:25:59;;;;;;;;;;;;;;;1.29;81.46;100320.30;1767363;80;20782;-70
2021/03/20 10:28:30;;;;;;;;;;;;;;;1.31;81.40;100321.52;1767386;80;20273;-70
2021/03/20 10:31:02;;;;;;;;;;;;;;;1.22;81.29;100321.91;1766825;80;20286;-70
2021/03/20 10:33:35;;;;;;;;;;;;;;;1.18;81.36;100317.76;1771855;80;20241;-72
2021/03/20 10:36:16;;;;;;;;;;;;;;;1.18;81.40;100318.60;1772671;80;22715;-72
2021/03/20 10:38:45;;;;;;;;;;;;;;;1.21;81.54;100324.13;1778578;80;20242;-71
2021/03/20 10:41:25;;;;;;;;;;;;;;;1.19;81.53;100321.59;1775507;80;20824;-70
2021/03/20 10:43:58;;;;;;;;;;;;;;;1.19;81.58;100316.84;1775942;80;20746;-72
2021/03/20 10:46:35;;;;;;;;;;;;;;;1.22;81.60;100321.45;1778675;80;20222;-70
2021/03/20 10:49:18;;;;;;;;;;;;;;;1.23;81.59;100317.94;1781757;80;22070;-72
2021/03/20 10:51:47;;;;;;;;;;;;;;;1.27;81.67;100321.28;1778637;80;21325;-73
2021/03/20 10:54:21;;;;;;;;;;;;;;;1.33;81.71;100322.30;1776994;79;20261;-71
2021/03/20 10:56:49;;;;;;;;;;;;;;;1.40;81.75;100325.89;1764284;80;21783;-70
2021/03/20 10:59:34;;;;;;;;;;;;;;;1.51;81.83;100318.92;1771557;80;20242;-72
2021/03/20 11:02:14;;;;;;;;;;;;;;;1.63;81.85;100322.74;1743869;80;21913;-75
2021/03/20 11:04:57;;;;;;;;;;;;;;;1.80;81.79;100325.46;1827052;76;20233;-75
2021/03/20 11:07:24;;;;;;;;;;;;;;;1.79;81.50;100328.98;1730998;79;20270;-72
2021/03/20 11:10:08;;;;;;;;;;;;;;;1.80;81.33;100324.62;1787836;79;20506;-73
2021/03/20 11:12:35;;;;;;;;;;;;;;;1.78;81.11;100333.80;1798734;78;21084;-76
2021/03/20 11:15:07;;;;;;;;;;;;;;;1.72;80.93;100332.30;1806062;79;20450;-77
2021/03/20 11:17:35;;;;;;;;;;;;;;;1.69;80.90;100331.14;1799135;79;20291;-84
2021/03/20 11:20:19;;;;;;;;;;;;;;;1.70;80.76;100334.12;1785353;79;20274;-81
2021/03/20 11:22:46;;;;;;;;;;;;;;;1.70;80.72;100332.83;1804752;77;22984;-75
2021/03/20 11:25:40;;;;;;;;;;;;;;;1.73;80.66;100339.20;1798306;79;20396;-72
2021/03/20 11:28:16;;;;;;;;;;;;;;;1.74;80.60;100337.47;1803815;79;20288;-72
2021/03/20 11:30:45;;;;;;;;;;;;;;;1.75;80.37;100337.86;1807814;79;20498;-73
2021/03/20 11:33:17;;;;;;;;;;;;;;;1.70;80.28;100339.80;1799907;77;20275;-73
2021/03/20 11:35:52;;;;;;;;;;;;;;;1.67;80.15;100340.78;1788627;79;21904;-73
2021/03/20 11:38:20;;;;;;;;;;;;;;;1.65;80.17;100339.16;1784686;79;20880;-73
2021/03/20 11:40:50;;;;;;;;;;;;;;;1.57;80.00;100339.49;1790358;79;20290;-72
2021/03/20 11:43:26;;;;;;;;;;;;;;;1.60;80.17;100335.90;1762936;79;20255;-73
2021/03/20 11:45:55;;;;;;;;;;;;;;;1.67;80.31;100335.58;1780091;80;20525;-73
2021/03/20 11:48:38;;;;;;;;;;;;;;;1.74;80.36;100336.16;1755291;80;21838;-72
2021/03/20 11:51:07;;;;;;;;;;;;;;;1.78;80.27;100336.87;1769852;80;20818;-75
2021/03/20 11:53:36;;;;;;;;;;;;;;;1.80;80.23;100333.73;1772242;79;20497;-73
2021/03/20 11:56:19;;;;;;;;;;;;;;;1.80;80.19;100337.64;1779629;79;21048;-74
2021/03/20 11:58:52;;;;;;;;;;;;;;;1.81;80.15;100339.33;1764542;79;20233;-75
2021/03/20 12:01:35;;;;;;;;;;;;;;;1.86;80.31;100340.83;1778855;79;22121;-76
2021/03/20 12:04:13;;;;;;;;;;;;;;;1.95;80.38;100335.22;1782909;79;22522;-74
2021/03/20 12:06:40;;;;;;;;;;;;;;;2.04;80.38;100341.78;1787803;79;20254;-72
2021/03/20 12:09:28;;;;;;;;;;;;;;;2.14;80.41;100337.84;1745909;79;20236;-73
2021/03/20 12:11:56;;;;;;;;;;;;;;;2.18;80.30;100334.63;1787701;79;20259;-73
2021/03/20 12:14:38;;;;;;;;;;;;;;;2.25;80.25;100339.95;1769898;80;22889;-72
2021/03/20 12:17:24;;;;;;;;;;;;;;;2.27;80.10;100336.81;1784478;79;20335;-73
2021/03/20 12:20:04;;;;;;;;;;;;;;;2.26;79.96;100331.22;1750939;79;20224;-74
2021/03/20 12:22:47;;;;;;;;;;;;;;;2.29;79.92;100334.52;1746570;80;20237;-72
2021/03/20 12:25:34;;;;;;;;;;;;;;;2.28;79.78;100331.98;1780988;79;20210;-72
2021/03/20 12:28:27;;;;;;;;;;;;;;;2.24;79.63;100326.55;1785803;80;22112;-74
2021/03/20 12:31:07;;;;;;;;;;;;;;;2.20;79.50;100332.80;1782250;80;20375;-74
2021/03/20 12:33:50;;;;;;;;;;;;;;;2.28;79.54;100333.30;1778485;80;20493;-72
2021/03/20 12:36:30;;;;;;;;;;;;;;;2.37;79.53;100332.87;1778760;79;20250;-76
2021/03/20 12:38:59;;;;;;;;;;;;;;;2.42;79.49;100332.67;1784311;79;20228;-75
2021/03/20 12:41:29;;;;;;;;;;;;;;;2.41;79.43;100329.66;1756482;79;22072;-72
2021/03/20 12:44:06;;;;;;;;;;;;;;;2.44;79.56;100340.80;1768029;80;21142;-73
2021/03/20 12:46:44;;;;;;;;;;;;;;;2.46;79.48;100336.36;1828226;76;20314;-73
2021/03/20 12:49:24;;;;;;;;;;;;;;;2.43;79.45;100339.58;1811580;79;20224;-77
2021/03/20 12:52:00;;;;;;;;;;;;;;;2.34;79.34;100336.93;1804164;79;22029;-73
2021/03/20 12:54:31;;;;;;;;;;;;;;;2.29;79.37;100333.67;1790227;79;20228;-73
2021/03/20 12:56:58;;;;;;;;;;;;;;;2.21;79.33;100343.14;1804973;78;20282;-73
2021/03/20 12:59:26;;;;;;;;;;;;;;;2.19;79.33;100341.06;1796392;79;20452;-72
2021/03/20 13:01:55;;;;;;;;;;;;;;;2.11;79.20;100338.41;1803853;79;20477;-73
2021/03/20 13:04:24;;;;;;;;;;;;;;;2.06;79.32;100333.43;1809493;79;21904;-73
2021/03/20 13:06:52;;;;;;;;;;;;;;;2.07;79.49;100328.60;1798618;79;21511;-73
2021/03/20 13:09:20;;;;;;;;;;;;;;;2.11;79.49;100331.91;1802846;79;20259;-75
2021/03/20 13:11:47;;;;;;;;;;;;;;;2.15;79.56;100336.92;1799700;79;20740;-79
2021/03/20 13:14:15;;;;;;;;;;;;;;;2.18;79.58;100334.17;1804567;79;20274;-76
2021/03/20 13:16:43;;;;;;;;;;;;;;;2.16;79.57;100329.48;1803807;78;22127;-76
2021/03/20 13:19:11;;;;;;;;;;;;;;;2.18;79.62;100327.66;1785056;79;20377;-76
2021/03/20 13:21:41;;;;;;;;;;;;;;;2.21;79.58;100328.80;1791378;79;20280;-76
2021/03/20 13:24:08;;;;;;;;;;;;;;;2.22;79.61;100329.22;1808773;79;20273;-75
2021/03/20 13:26:35;;;;;;;;;;;;;;;2.31;79.73;100325.32;1789354;79;20277;-76
2021/03/20 13:29:03;;;;;;;;;;;;;;;2.39;79.66;100319.77;1789235;79;22353;-78
2021/03/20 13:31:31;;;;;;;;;;;;;;;2.41;79.56;100316.62;1798100;79;21098;-76